Stillwell, Ohio
Current Conditions -  °F | °C
As of 6:55 PM on Monday 20 Oct 2014 (Local Time) from K4I3 Reporting Station
Moderate Rain Moderate Rain  
Wind Chill: 52°   Ceiling: 1900
Heat Index: 52°   Visibility: 7mi
Dew Point: 50°   Wind: 6mph
Humidity: 94%   Direction: 210°SSW
Pressure: 29.87"   Gusts: NA
Location:  40.4765°N, 82.0295°W
Report Text: K4I3 202255Z AUTO 21005KT 7SM RA SCT009 BKN019 OVC060 11/10 A2987 RMK AO2 LTG DSNT SW
Loading
Personal Weather Stations






























Interactive Weather Map
Tropical Storm Tracking
New forecast layout! Learn more

10-Day Weather Forecast

Advertisements
Track Severe Weather on mobile